Time;durP1;ratioP1;P1;durP2;ratioP2;P2;SDS_P1;SDS_P2;PMS_P1;PMS_P2;Temp;Humidity;BMP_temperature;BMP_pressure;BME280_temperature;BME280_humidity;BME280_pressure;Samples;Min_cycle;Max_cycle;Signal;HPM_P1;HPM_P2
2023/10/16 00:00:53;;;;;;;2.53;1.60;;;;;;;13.11;100.00;101363.78;2048467;28;20457;-69
2023/10/16 00:01:54;;;;;;;3.00;1.50;;;;;;;13.13;100.00;101360.56;2048223;28;20940;-69
2023/10/16 00:03:01;;;;;;;2.77;1.70;;;;;;;13.00;100.00;101340.97;2048409;28;20565;-69
2023/10/16 00:04:04;;;;;;;3.40;2.00;;;;;;;13.15;100.00;101364.50;2049380;29;20205;-69
2023/10/16 00:05:08;;;;;;;2.00;1.50;;;;;;;13.16;100.00;101371.63;2049060;28;20441;-69
2023/10/16 00:06:12;;;;;;;2.17;1.50;;;;;;;13.14;100.00;101365.72;2047442;28;20489;-69
2023/10/16 00:07:14;;;;;;;2.73;1.57;;;;;;;12.37;100.00;101256.13;2048449;28;20485;-69
2023/10/16 00:08:18;;;;;;;3.03;1.90;;;;;;;13.14;100.00;101378.84;2048628;28;20453;-69
2023/10/16 00:09:22;;;;;;;1.87;1.37;;;;;;;13.11;100.00;101380.47;2048593;28;20534;-69
2023/10/16 00:10:26;;;;;;;7.47;1.60;;;;;;;13.12;100.00;101379.25;2048174;29;20848;-69
2023/10/16 00:11:27;;;;;;;3.30;2.10;;;;;;;13.07;100.00;101373.44;2048596;29;21023;-69
2023/10/16 00:12:29;;;;;;;4.80;1.70;;;;;;;13.09;100.00;101377.34;2048138;28;20524;-69
2023/10/16 00:13:37;;;;;;;2.40;1.53;;;;;;;13.12;100.00;101375.72;2048406;28;20676;-69
2023/10/16 00:14:38;;;;;;;4.10;1.80;;;;;;;13.10;100.00;101376.13;2048518;28;20916;-69
2023/10/16 00:15:49;;;;;;;3.13;1.60;;;;;;;12.72;100.00;101313.78;2048911;29;20852;-69
2023/10/16 00:16:50;;;;;;;2.00;1.37;;;;;;;13.11;100.00;101379.72;2048492;28;20180;-69
2023/10/16 00:17:50;;;;;;;1.80;1.43;;;;;;;13.10;100.00;101386.47;2041197;29;20422;-69
2023/10/16 00:18:53;;;;;;;3.03;1.50;;;;;;;13.11;100.00;101369.34;2046868;28;20691;-69
2023/10/16 00:19:54;;;;;;;5.73;1.57;;;;;;;13.11;100.00;101385.28;2048703;28;20198;-69
2023/10/16 00:20:57;;;;;;;2.37;1.53;;;;;;;13.12;100.00;101390.38;2048465;28;20463;-69
2023/10/16 00:21:57;;;;;;;2.27;1.50;;;;;;;13.13;100.00;101397.53;2048036;28;20400;-69
2023/10/16 00:22:58;;;;;;;4.47;1.57;;;;;;;13.11;100.00;101394.38;2048522;28;20465;-69
2023/10/16 00:23:59;;;;;;;2.13;1.73;;;;;;;13.12;100.00;101401.53;2048412;28;20218;-68
2023/10/16 00:24:59;;;;;;;1.47;1.23;;;;;;;13.12;100.00;101407.09;2048118;28;20207;-68
2023/10/16 00:26:00;;;;;;;3.77;1.20;;;;;;;13.13;100.00;101405.09;2048671;29;20196;-68
2023/10/16 00:27:00;;;;;;;2.20;1.33;;;;;;;12.93;100.00;101368.16;2048464;29;20206;-68
2023/10/16 00:28:01;;;;;;;1.43;1.17;;;;;;;13.18;100.00;101393.47;2048519;28;20317;-68
2023/10/16 00:29:24;;;;;;;4.60;1.53;;;;;;;12.84;100.00;101346.47;2048631;28;20209;-68
2023/10/16 00:30:25;;;;;;;2.13;1.13;;;;;;;13.20;100.00;101382.66;2048620;28;20284;-68
2023/10/16 00:31:32;;;;;;;2.63;1.43;;;;;;;13.08;100.00;101373.00;2048126;29;20508;-69
2023/10/16 00:32:36;;;;;;;1.43;0.80;;;;;;;13.17;100.00;101384.31;2048167;28;20857;-68
2023/10/16 00:33:40;;;;;;;4.50;1.50;;;;;;;13.19;100.00;101383.88;2048385;28;20481;-68
2023/10/16 00:34:40;;;;;;;2.20;1.10;;;;;;;13.16;100.00;101373.63;2048358;28;20932;-69
2023/10/16 00:36:02;;;;;;;1.77;1.20;;;;;;;13.17;100.00;101394.69;2048169;29;20943;-69
2023/10/16 00:37:02;;;;;;;1.87;1.00;;;;;;;13.20;100.00;101397.38;2048297;28;20225;-69
2023/10/16 00:38:04;;;;;;;5.57;1.50;;;;;;;13.20;100.00;101424.41;2048264;28;20535;-68
2023/10/16 00:39:13;;;;;;;4.17;1.90;;;;;;;13.22;100.00;101391.38;2047524;29;20177;-69
2023/10/16 00:40:19;;;;;;;1.97;1.40;;;;;;;13.27;100.00;101418.72;2048055;28;20405;-69
2023/10/16 00:41:28;;;;;;;1.40;1.10;;;;;;;13.27;100.00;101427.06;2048388;28;20412;-69
2023/10/16 00:42:29;;;;;;;4.53;1.10;;;;;;;13.33;100.00;101423.31;2055277;28;20422;-69
2023/10/16 00:43:32;;;;;;;3.63;1.40;;;;;;;13.38;100.00;101431.16;2055611;28;20431;-68
2023/10/16 00:44:35;;;;;;;2.00;1.27;;;;;;;13.37;100.00;101426.03;2048927;29;20433;-68
2023/10/16 00:45:53;;;;;;;1.53;1.27;;;;;;;13.43;100.00;101438.22;2048016;28;20446;-68
2023/10/16 00:46:54;;;;;;;8.43;1.23;;;;;;;13.45;100.00;101439.38;2048974;29;20506;-69
2023/10/16 00:47:54;;;;;;;4.87;1.10;;;;;;;13.41;100.00;101444.22;2048411;28;20461;-69
2023/10/16 00:48:55;;;;;;;3.10;1.17;;;;;;;13.47;100.00;101450.84;2048418;28;20273;-68
2023/10/16 00:49:59;;;;;;;6.97;1.20;;;;;;;13.50;100.00;101461.13;2048313;28;20251;-69
2023/10/16 00:51:07;;;;;;;2.50;1.13;;;;;;;13.53;100.00;101446.31;2048232;28;20227;-69
2023/10/16 00:52:10;;;;;;;1.87;1.07;;;;;;;13.55;100.00;101468.97;2047856;28;20510;-69
2023/10/16 00:53:13;;;;;;;3.73;1.43;;;;;;;13.55;100.00;101462.59;2047842;28;20468;-68
2023/10/16 00:54:26;;;;;;;1.00;0.90;;;;;;;13.58;100.00;101470.13;2048370;28;20443;-68
2023/10/16 00:55:28;;;;;;;1.30;1.20;;;;;;;13.56;100.00;101458.59;2047737;29;20465;-68
2023/10/16 00:56:30;;;;;;;2.93;1.30;;;;;;;13.59;100.00;101466.91;2048291;28;20817;-68
2023/10/16 00:57:30;;;;;;;1.63;1.10;;;;;;;13.05;100.00;101367.50;2048020;28;20438;-68
2023/10/16 00:58:31;;;;;;;2.47;1.17;;;;;;;13.64;100.00;101471.16;2048792;29;20461;-68
2023/10/16 00:59:32;;;;;;;1.23;0.70;;;;;;;13.65;100.00;101461.59;2048062;28;20695;-68
2023/10/16 01:00:38;;;;;;;2.40;1.20;;;;;;;13.66;100.00;101455.59;2048404;28;20190;-68
2023/10/16 01:01:43;;;;;;;2.57;0.80;;;;;;;13.62;100.00;101465.25;2048154;28;20280;-68
2023/10/16 01:02:43;;;;;;;8.37;1.70;;;;;;;13.68;100.00;101463.50;2047859;29;20450;-68
2023/10/16 01:03:48;;;;;;;1.93;1.10;;;;;;;13.23;100.00;101398.50;2048313;28;20457;-68
2023/10/16 01:04:50;;;;;;;1.57;1.03;;;;;;;13.64;100.00;101463.59;2048236;29;20253;-68
2023/10/16 01:05:50;;;;;;;1.77;1.03;;;;;;;13.55;100.00;101460.63;2047736;28;20565;-67
2023/10/16 01:06:51;;;;;;;1.37;1.10;;;;;;;13.12;100.00;101392.41;2048080;28;20431;-68
2023/10/16 01:07:51;;;;;;;2.17;0.70;;;;;;;13.51;100.00;101450.75;2047331;28;20181;-67
2023/10/16 01:08:52;;;;;;;1.83;0.83;;;;;;;13.06;100.00;101388.56;2048780;29;20188;-68
2023/10/16 01:09:52;;;;;;;1.87;0.90;;;;;;;13.49;100.00;101436.50;2048239;29;20187;-68
2023/10/16 01:10:57;;;;;;;2.47;1.03;;;;;;;13.40;100.00;101437.09;2048016;28;20703;-68
2023/10/16 01:11:57;;;;;;;3.07;1.13;;;;;;;13.38;100.00;101447.84;2047784;28;20646;-68
2023/10/16 01:12:59;;;;;;;2.40;1.13;;;;;;;13.02;100.00;101396.97;2048033;28;20454;-68
2023/10/16 01:13:59;;;;;;;2.07;1.20;;;;;;;13.35;100.00;101447.94;2047888;28;20193;-68
2023/10/16 01:14:59;;;;;;;2.37;1.00;;;;;;;13.39;100.00;101462.56;2047611;28;20427;-68
2023/10/16 01:16:00;;;;;;;1.00;0.90;;;;;;;13.37;100.00;101435.16;2046817;29;20303;-69
2023/10/16 01:17:02;;;;;;;4.47;1.03;;;;;;;13.37;100.00;101443.50;2047721;28;20203;-69
2023/10/16 01:18:06;;;;;;;3.90;1.13;;;;;;;13.32;100.00;101434.91;2048202;28;20985;-68
2023/10/16 01:19:09;;;;;;;1.77;0.83;;;;;;;13.39;100.00;101438.31;2047972;28;20544;-69
2023/10/16 01:20:10;;;;;;;2.27;1.10;;;;;;;13.35;100.00;101428.47;2048172;28;21025;-69
2023/10/16 01:21:13;;;;;;;7.80;1.50;;;;;;;13.24;100.00;101417.56;2047985;28;20461;-68
2023/10/16 01:22:14;;;;;;;3.20;1.07;;;;;;;13.34;100.00;101432.47;2047001;28;20303;-68
2023/10/16 01:23:21;;;;;;;3.90;0.77;;;;;;;12.90;100.00;101364.22;2048071;28;20429;-68
2023/10/16 01:24:24;;;;;;;2.63;1.40;;;;;;;13.23;100.00;101435.47;2048037;28;20178;-68
2023/10/16 01:25:24;;;;;;;2.47;0.80;;;;;;;12.87;100.00;101373.41;2047598;28;20486;-69
2023/10/16 01:26:25;;;;;;;1.60;1.10;;;;;;;13.22;100.00;101435.91;2048298;28;20449;-68
2023/10/16 01:27:26;;;;;;;1.93;0.80;;;;;;;13.23;100.00;101437.47;2048733;28;20191;-68
2023/10/16 01:28:27;;;;;;;21.53;1.90;;;;;;;13.26;100.00;101431.84;2048108;28;20245;-68
2023/10/16 01:29:28;;;;;;;3.20;0.80;;;;;;;13.23;100.00;101454.94;2048199;28;20450;-69
2023/10/16 01:30:28;;;;;;;6.43;1.07;;;;;;;13.23;100.00;101456.97;2048136;28;20203;-68
2023/10/16 01:31:29;;;;;;;2.60;0.87;;;;;;;13.24;100.00;101467.69;2047992;28;20206;-69
2023/10/16 01:32:29;;;;;;;3.10;1.13;;;;;;;13.28;100.00;101471.16;2047700;28;20184;-68
2023/10/16 01:33:30;;;;;;;1.73;0.87;;;;;;;13.28;100.00;101485.06;2047929;28;20729;-68
2023/10/16 01:34:32;;;;;;;1.57;0.63;;;;;;;13.30;100.00;101479.06;2048704;29;20217;-68
2023/10/16 01:35:32;;;;;;;1.83;0.93;;;;;;;13.21;100.00;101474.09;2048204;29;20256;-68
2023/10/16 01:36:33;;;;;;;1.67;0.70;;;;;;;13.25;100.00;101488.72;2047523;28;20535;-68
2023/10/16 01:37:33;;;;;;;1.00;0.73;;;;;;;13.25;100.00;101504.63;2048105;28;20198;-69
2023/10/16 01:38:34;;;;;;;2.90;0.87;;;;;;;13.06;100.00;101472.81;2047836;28;20202;-69
2023/10/16 01:40:12;;;;;;;3.87;0.77;;;;;;;13.29;100.00;101508.13;2048101;28;20570;-69
2023/10/16 01:41:13;;;;;;;2.47;0.77;;;;;;;13.26;100.00;101520.91;2047718;28;20472;-69
2023/10/16 01:42:15;;;;;;;1.80;0.90;;;;;;;12.95;100.00;101471.41;2047779;28;20488;-69
2023/10/16 01:43:16;;;;;;;3.00;0.67;;;;;;;12.87;100.00;101456.09;2055116;28;20466;-69
2023/10/16 01:44:18;;;;;;;3.17;0.93;;;;;;;13.23;100.00;101523.78;2055570;28;20451;-66
2023/10/16 01:45:20;;;;;;;3.03;0.73;;;;;;;13.25;100.00;101519.34;2047519;28;20204;-64
2023/10/16 01:46:20;;;;;;;1.37;0.83;;;;;;;13.25;100.00;101524.13;2047733;28;20525;-64
2023/10/16 01:47:20;;;;;;;0.80;0.60;;;;;;;13.26;100.00;101528.47;2048009;28;20921;-65
2023/10/16 01:48:21;;;;;;;4.33;1.07;;;;;;;13.26;100.00;101520.91;2047883;29;20183;-65
2023/10/16 01:49:24;;;;;;;4.80;0.80;;;;;;;13.23;100.00;101534.91;2047809;28;20210;-65
2023/10/16 01:50:27;;;;;;;0.93;0.70;;;;;;;12.97;100.00;101491.31;2047610;28;20206;-65
2023/10/16 01:51:30;;;;;;;1.87;0.70;;;;;;;13.25;100.00;101532.47;2047910;28;20507;-65
2023/10/16 01:52:33;;;;;;;0.73;0.70;;;;;;;13.05;100.00;101501.06;2047630;28;20478;-65
2023/10/16 01:53:36;;;;;;;1.40;1.07;;;;;;;13.26;100.00;101525.69;2048045;28;20939;-64
2023/10/16 01:54:38;;;;;;;1.63;0.80;;;;;;;13.24;100.00;101526.13;2047783;28;20935;-65
2023/10/16 01:55:38;;;;;;;2.03;1.10;;;;;;;13.24;100.00;101530.91;2047084;28;20437;-64
2023/10/16 01:56:39;;;;;;;1.30;0.70;;;;;;;13.23;100.00;101527.31;2047678;28;20455;-64
2023/10/16 01:57:39;;;;;;;5.83;1.20;;;;;;;13.24;100.00;101526.13;2047713;29;20183;-64
2023/10/16 01:58:44;;;;;;;0.70;0.70;;;;;;;13.25;100.00;101521.34;2048282;29;20195;-65
2023/10/16 01:59:47;;;;;;;0.70;0.60;;;;;;;13.21;100.00;101529.00;2047948;28;20238;-65
2023/10/16 02:00:48;;;;;;;2.03;0.67;;;;;;;13.15;100.00;101522.34;2047853;28;20512;-65
2023/10/16 02:01:49;;;;;;;3.13;0.83;;;;;;;13.11;100.00;101527.22;2047536;28;20489;-65
2023/10/16 02:02:50;;;;;;;0.87;0.60;;;;;;;13.14;100.00;101534.69;2047866;28;20204;-65
2023/10/16 02:03:50;;;;;;;1.40;0.73;;;;;;;12.22;100.00;101381.91;2047819;28;20962;-64
2023/10/16 02:04:51;;;;;;;1.83;0.70;;;;;;;13.16;100.00;101527.47;2047405;29;20567;-65
2023/10/16 02:05:51;;;;;;;1.90;0.70;;;;;;;12.45;100.00;101420.78;2047257;28;20182;-64
2023/10/16 02:06:52;;;;;;;2.17;0.97;;;;;;;13.21;100.00;101529.00;2048362;29;20194;-64
2023/10/16 02:07:56;;;;;;;1.87;0.80;;;;;;;13.20;100.00;101527.41;2055222;28;20195;-65
2023/10/16 02:08:56;;;;;;;1.17;0.70;;;;;;;13.16;100.00;101533.03;2054816;28;20243;-64
2023/10/16 02:09:57;;;;;;;1.47;0.83;;;;;;;13.14;100.00;101527.13;2047795;28;20880;-65
2023/10/16 02:10:57;;;;;;;2.93;0.80;;;;;;;13.01;100.00;101520.63;2047655;28;20186;-64
2023/10/16 02:12:01;;;;;;;0.60;0.60;;;;;;;13.21;100.00;101529.00;2047461;29;20203;-64
2023/10/16 02:13:01;;;;;;;1.13;0.60;;;;;;;13.11;100.00;101533.53;2054998;28;20645;-64
2023/10/16 02:14:02;;;;;;;1.73;0.70;;;;;;;13.20;100.00;101539.31;2054976;28;20494;-64
2023/10/16 02:15:05;;;;;;;5.80;0.80;;;;;;;13.22;100.00;101544.47;2048502;28;20688;-64
2023/10/16 02:16:10;;;;;;;0.97;0.57;;;;;;;13.20;100.00;101547.69;2048102;29;20728;-64
2023/10/16 02:17:21;;;;;;;1.73;0.77;;;;;;;12.92;100.00;101508.47;2047676;28;20460;-64
2023/10/16 02:18:27;;;;;;;2.90;0.83;;;;;;;13.06;100.00;101547.19;2047890;28;20862;-65
2023/10/16 02:19:27;;;;;;;2.77;0.63;;;;;;;13.06;100.00;101550.72;2046967;29;20464;-64
2023/10/16 02:20:31;;;;;;;1.77;0.77;;;;;;;13.02;100.00;101554.81;2047666;29;20470;-65
2023/10/16 02:21:32;;;;;;;0.57;0.57;;;;;;;12.78;100.00;101529.00;2047824;28;20194;-65
2023/10/16 02:22:32;;;;;;;2.07;0.73;;;;;;;12.86;100.00;101540.78;2047246;28;20451;-65
2023/10/16 02:23:34;;;;;;;1.37;0.70;;;;;;;12.89;100.00;101556.59;2047627;28;20460;-65
2023/10/16 02:24:37;;;;;;;2.77;0.60;;;;;;;12.86;100.00;101552.66;2047621;28;20195;-65
2023/10/16 02:25:38;;;;;;;0.97;0.63;;;;;;;12.87;100.00;101572.94;2047264;28;20487;-65
2023/10/16 02:26:56;;;;;;;1.10;0.60;;;;;;;12.36;100.00;101501.16;2048306;29;20457;-65
2023/10/16 02:27:58;;;;;;;1.77;0.73;;;;;;;12.41;100.00;101509.00;2040791;28;20195;-65
2023/10/16 02:29:00;;;;;;;1.33;0.67;;;;;;;12.69;100.00;101542.66;2048536;28;20460;-65
2023/10/16 02:30:15;;;;;;;0.77;0.60;;;;;;;12.78;100.00;101570.72;2042175;29;20454;-65
2023/10/16 02:31:18;;;;;;;1.47;0.67;;;;;;;12.80;100.00;101570.28;2042003;29;20472;-65
2023/10/16 02:32:18;;;;;;;1.53;1.03;;;;;;;12.03;100.00;101447.31;2048465;28;20449;-65
2023/10/16 02:33:26;;;;;;;0.77;0.70;;;;;;;12.80;100.00;101573.06;2048505;28;20526;-66
2023/10/16 02:34:26;;;;;;;0.60;0.50;;;;;;;12.79;100.00;101582.59;2049299;28;20216;-66
2023/10/16 02:35:27;;;;;;;2.37;0.73;;;;;;;12.19;100.00;101494.69;2048677;29;20492;-65
2023/10/16 02:36:29;;;;;;;1.07;0.77;;;;;;;12.81;100.00;101585.78;2049138;28;20228;-66
2023/10/16 02:37:29;;;;;;;1.27;0.50;;;;;;;12.82;100.00;101599.22;2049140;28;20571;-65
2023/10/16 02:38:30;;;;;;;1.73;0.77;;;;;;;12.79;100.00;101608.44;2049193;28;20438;-65
2023/10/16 02:39:37;;;;;;;1.17;0.90;;;;;;;12.79;100.00;101614.00;2049121;28;20588;-65
2023/10/16 02:40:39;;;;;;;2.50;0.43;;;;;;;12.80;100.00;101609.25;2049087;28;20244;-65
2023/10/16 02:41:41;;;;;;;1.50;0.70;;;;;;;12.74;100.00;101619.25;2049809;29;20476;-65
2023/10/16 02:42:42;;;;;;;0.60;0.60;;;;;;;12.74;100.00;101622.03;2049118;29;20520;-65
2023/10/16 02:43:45;;;;;;;1.53;0.53;;;;;;;12.68;100.00;101618.97;2049398;28;20512;-65
2023/10/16 02:44:45;;;;;;;0.70;0.53;;;;;;;12.68;100.00;101618.16;2049289;28;20187;-65
2023/10/16 02:45:51;;;;;;;0.60;0.60;;;;;;;12.73;100.00;101631.59;2048872;28;20450;-65
2023/10/16 02:46:52;;;;;;;2.40;1.20;;;;;;;12.72;100.00;101636.38;2049071;28;20289;-65
2023/10/16 02:47:53;;;;;;;0.53;0.50;;;;;;;12.73;100.00;101640.72;2048758;28;20424;-65
2023/10/16 02:48:54;;;;;;;0.87;0.70;;;;;;;12.72;100.00;101625.25;2049032;28;20181;-65
2023/10/16 02:49:56;;;;;;;1.00;0.60;;;;;;;12.72;100.00;101632.81;2049091;28;20416;-65
2023/10/16 02:50:56;;;;;;;1.60;0.90;;;;;;;12.71;100.00;101620.88;2049846;29;20236;-65
2023/10/16 02:51:57;;;;;;;2.10;1.57;;;;;;;12.67;100.00;101627.72;2048402;28;20482;-65
2023/10/16 02:52:58;;;;;;;2.10;0.90;;;;;;;12.71;100.00;101637.56;2049084;28;20288;-65
2023/10/16 02:54:00;;;;;;;1.97;0.80;;;;;;;12.68;100.00;101632.88;2049271;28;20199;-65
2023/10/16 02:55:01;;;;;;;0.90;0.70;;;;;;;12.71;100.00;101636.81;2049189;28;20246;-65
2023/10/16 02:56:05;;;;;;;1.20;0.87;;;;;;;12.73;100.00;101637.16;2048832;29;21543;-65
2023/10/16 02:57:06;;;;;;;0.73;0.60;;;;;;;12.59;100.00;101613.16;2049014;29;20655;-65
2023/10/16 02:58:11;;;;;;;2.20;0.70;;;;;;;12.70;100.00;101647.13;2048992;28;20428;-65
2023/10/16 02:59:12;;;;;;;2.07;0.97;;;;;;;12.67;100.00;101634.09;2049165;28;20423;-65
2023/10/16 03:00:35;;;;;;;2.37;0.90;;;;;;;12.67;100.00;101652.75;2049798;29;20430;-65
2023/10/16 03:01:34;;;;;;;1.33;0.77;;;;;;;12.61;100.00;101646.09;2048860;28;20430;-64
2023/10/16 03:02:35;;;;;;;1.10;0.80;;;;;;;12.59;100.00;101646.53;2049085;29;20421;-64
2023/10/16 03:03:35;;;;;;;2.37;1.23;;;;;;;12.59;100.00;101645.72;2049150;28;20185;-65
2023/10/16 03:04:36;;;;;;;1.27;0.77;;;;;;;12.57;100.00;101650.94;2048908;28;20457;-64
2023/10/16 03:05:36;;;;;;;1.43;0.90;;;;;;;12.57;100.00;101654.50;2048862;28;20203;-64
2023/10/16 03:06:40;;;;;;;1.13;0.87;;;;;;;12.54;100.00;101646.19;2048978;28;20209;-65
2023/10/16 03:07:44;;;;;;;1.33;0.90;;;;;;;12.54;100.00;101658.13;2049086;29;20571;-66
2023/10/16 03:08:51;;;;;;;2.37;1.00;;;;;;;12.54;100.00;101648.97;2048776;29;20435;-67
2023/10/16 03:09:52;;;;;;;1.83;0.87;;;;;;;12.53;100.00;101642.66;2049369;29;20403;-67
2023/10/16 03:10:54;;;;;;;1.00;0.57;;;;;;;12.55;100.00;101653.34;2048871;28;20462;-67
2023/10/16 03:12:09;;;;;;;1.47;0.80;;;;;;;12.55;100.00;101653.34;2049358;29;21046;-66
2023/10/16 03:13:11;;;;;;;1.47;1.00;;;;;;;12.54;100.00;101654.53;2048898;28;20434;-67
2023/10/16 03:14:11;;;;;;;0.70;0.60;;;;;;;12.35;100.00;101636.56;2049734;29;20422;-67
2023/10/16 03:15:15;;;;;;;1.07;0.50;;;;;;;12.48;100.00;101656.22;2041065;29;20455;-67
2023/10/16 03:16:26;;;;;;;0.87;0.63;;;;;;;12.47;100.00;101640.75;2047338;28;20191;-67
2023/10/16 03:17:34;;;;;;;1.43;0.83;;;;;;;12.46;100.00;101659.41;2048880;28;20459;-67
2023/10/16 03:18:35;;;;;;;2.87;0.90;;;;;;;12.46;100.00;101680.91;2048978;29;20828;-67
2023/10/16 03:19:35;;;;;;;1.93;1.00;;;;;;;12.45;100.00;101657.84;2049090;28;20447;-67
2023/10/16 03:20:36;;;;;;;1.30;0.80;;;;;;;12.38;100.00;101648.84;2049022;28;20556;-67
2023/10/16 03:21:39;;;;;;;2.00;0.73;;;;;;;12.39;100.00;101667.88;2048870;28;20195;-67
2023/10/16 03:22:40;;;;;;;0.60;0.50;;;;;;;11.75;100.00;101581.09;2048708;28;20250;-67
2023/10/16 03:23:49;;;;;;;3.40;0.97;;;;;;;12.38;100.00;101673.84;2048978;28;20517;-67
2023/10/16 03:24:51;;;;;;;2.00;1.00;;;;;;;12.35;100.00;101677.47;2048857;28;20175;-67
2023/10/16 03:25:52;;;;;;;1.10;0.83;;;;;;;12.35;100.00;101680.25;2049052;29;20442;-67
2023/10/16 03:26:57;;;;;;;1.53;0.97;;;;;;;12.38;100.00;101684.97;2049018;28;20478;-67
2023/10/16 03:27:57;;;;;;;1.73;0.90;;;;;;;12.34;100.00;101689.81;2041899;29;20215;-67
2023/10/16 03:29:02;;;;;;;1.10;0.70;;;;;;;12.22;100.00;101673.69;2047021;28;20479;-67
2023/10/16 03:30:03;;;;;;;0.60;0.43;;;;;;;12.35;100.00;101710.84;2049008;28;20218;-66
2023/10/16 03:31:04;;;;;;;1.43;0.80;;;;;;;11.71;100.00;101602.56;2048579;28;20451;-67
2023/10/16 03:32:04;;;;;;;4.67;0.90;;;;;;;12.35;100.00;101702.50;2057702;28;20261;-67
2023/10/16 03:33:05;;;;;;;1.37;0.77;;;;;;;12.34;100.00;101704.47;2062054;28;20174;-67
2023/10/16 03:34:11;;;;;;;1.53;0.87;;;;;;;12.39;100.00;101708.78;2048859;28;20747;-67
2023/10/16 03:35:14;;;;;;;0.73;0.53;;;;;;;12.39;100.00;101709.56;2048670;29;20168;-67
2023/10/16 03:36:15;;;;;;;1.27;0.70;;;;;;;12.32;100.00;101715.25;2049411;29;20929;-67
2023/10/16 03:37:16;;;;;;;2.07;0.90;;;;;;;12.32;100.00;101720.81;2048761;28;20873;-67
2023/10/16 03:38:24;;;;;;;1.23;0.73;;;;;;;12.37;100.00;101717.56;2048513;28;20192;-67
2023/10/16 03:39:25;;;;;;;0.97;0.83;;;;;;;12.42;100.00;101719.06;2048557;28;20527;-67
2023/10/16 03:40:27;;;;;;;1.00;0.70;;;;;;;12.43;100.00;101724.22;2048626;28;20462;-67
2023/10/16 03:41:31;;;;;;;2.13;0.63;;;;;;;12.42;100.00;101722.66;2048875;28;20895;-67
2023/10/16 03:42:32;;;;;;;1.40;0.70;;;;;;;12.39;100.00;101731.00;2048482;28;20446;-67
2023/10/16 03:43:33;;;;;;;0.97;0.70;;;;;;;12.39;100.00;101726.25;2048492;29;21012;-67
2023/10/16 03:44:34;;;;;;;2.73;0.80;;;;;;;12.36;100.00;101721.53;2048681;28;20183;-67
2023/10/16 03:45:39;;;;;;;0.70;0.60;;;;;;;12.40;100.00;101733.38;2048711;29;20427;-67
2023/10/16 03:46:41;;;;;;;2.20;0.77;;;;;;;12.03;100.00;101685.44;2041423;29;20207;-67
2023/10/16 03:47:42;;;;;;;1.20;0.80;;;;;;;11.39;100.00;101573.59;2048453;28;20463;-67
2023/10/16 03:48:44;;;;;;;1.40;0.87;;;;;;;12.36;100.00;101732.66;2048687;29;20435;-67
2023/10/16 03:49:46;;;;;;;1.50;0.93;;;;;;;12.29;100.00;101721.63;2048687;29;20191;-68
2023/10/16 03:50:46;;;;;;;0.90;0.77;;;;;;;12.36;100.00;101737.44;2048702;28;20446;-68
2023/10/16 03:51:48;;;;;;;1.77;1.10;;;;;;;12.35;100.00;101725.50;2048342;28;21026;-68
2023/10/16 03:52:49;;;;;;;2.10;1.20;;;;;;;12.39;100.00;101733.78;2048599;28;20176;-67
2023/10/16 03:53:56;;;;;;;1.57;0.90;;;;;;;12.39;100.00;101737.38;2048730;28;20419;-67
2023/10/16 03:54:57;;;;;;;1.83;1.00;;;;;;;12.41;100.00;101742.53;2048653;28;20655;-67
2023/10/16 03:55:58;;;;;;;2.93;1.10;;;;;;;12.27;100.00;101724.03;2049091;29;20423;-67
2023/10/16 03:57:01;;;;;;;1.50;0.90;;;;;;;12.41;100.00;101746.06;2048819;29;20246;-68
2023/10/16 03:58:06;;;;;;;1.40;1.00;;;;;;;12.39;100.00;101745.72;2048873;28;20831;-67
2023/10/16 03:59:07;;;;;;;3.47;1.30;;;;;;;12.39;100.00;101744.91;2048020;28;20578;-67
2023/10/16 04:00:14;;;;;;;3.37;1.07;;;;;;;11.75;100.00;101644.16;2048523;29;20503;-67
2023/10/16 04:01:23;;;;;;;1.03;0.93;;;;;;;12.36;100.00;101740.22;2047827;28;20693;-67
2023/10/16 04:02:24;;;;;;;1.10;0.90;;;;;;;12.03;100.00;101693.78;2047944;28;20491;-67
2023/10/16 04:03:33;;;;;;;1.63;0.97;;;;;;;11.91;100.00;101678.47;2048486;28;20446;-67
2023/10/16 04:04:34;;;;;;;2.50;1.00;;;;;;;12.19;100.00;101739.22;2048430;28;20250;-67
2023/10/16 04:05:47;;;;;;;3.47;1.17;;;;;;;12.16;100.00;101736.50;2055532;28;20501;-68
2023/10/16 04:06:48;;;;;;;0.70;0.67;;;;;;;12.10;100.00;101738.94;2054635;28;20644;-67
2023/10/16 04:07:49;;;;;;;1.43;0.80;;;;;;;11.97;100.00;101734.34;2055762;28;20493;-67
2023/10/16 04:08:51;;;;;;;2.33;1.10;;;;;;;11.82;100.00;101719.84;2055791;28;20454;-67
2023/10/16 04:09:58;;;;;;;1.27;0.90;;;;;;;11.97;100.00;101751.81;2048615;29;20283;-68
2023/10/16 04:11:02;;;;;;;1.87;1.10;;;;;;;11.95;100.00;101748.63;2048558;29;20400;-67
2023/10/16 04:12:06;;;;;;;1.03;0.90;;;;;;;11.91;100.00;101755.44;2048333;28;20478;-67
2023/10/16 04:13:07;;;;;;;1.83;1.00;;;;;;;11.89;100.00;101746.75;2048457;28;20443;-67
2023/10/16 04:14:09;;;;;;;3.40;1.23;;;;;;;11.73;100.00;101741.75;2047825;28;20438;-67
2023/10/16 04:15:23;;;;;;;1.93;1.00;;;;;;;11.82;100.00;101758.72;2048322;28;20327;-67
2023/10/16 04:16:35;;;;;;;0.90;0.70;;;;;;;11.81;100.00;101756.34;2048630;28;20523;-67
2023/10/16 04:17:38;;;;;;;1.33;0.80;;;;;;;11.71;100.00;101765.59;2048658;28;20790;-68
2023/10/16 04:18:39;;;;;;;1.43;0.80;;;;;;;11.72;100.00;101765.19;2048307;28;20517;-67
2023/10/16 04:19:53;;;;;;;1.83;0.83;;;;;;;11.49;100.00;101722.56;2048465;28;20533;-65
2023/10/16 04:22:16;;;;;;;1.73;1.03;;;;;;;11.40;100.00;101728.59;2048319;28;20518;-68
2023/10/16 04:24:47;;;;;;;1.27;1.00;;;;;;;11.61;100.00;101775.63;2032271;28;20811;-65
2023/10/16 04:26:28;;;;;;;1.80;1.00;;;;;;;11.60;100.00;101778.78;2045660;28;20476;-66
2023/10/16 04:28:29;;;;;;;1.53;1.00;;;;;;;11.58;100.00;101781.19;2049876;28;20442;-68
2023/10/16 04:29:33;;;;;;;2.53;1.07;;;;;;;11.60;100.00;101787.94;2047419;28;20721;-68
2023/10/16 04:30:39;;;;;;;1.60;0.93;;;;;;;11.59;100.00;101794.66;2047282;28;20439;-68
2023/10/16 04:31:45;;;;;;;1.50;1.00;;;;;;;11.58;100.00;101787.50;2055350;28;20445;-67
2023/10/16 04:33:48;;;;;;;1.67;1.00;;;;;;;11.58;100.00;101798.59;2048536;28;20454;-68
2023/10/16 04:37:36;;;;;;;1.17;0.90;;;;;;;11.55;100.00;101798.66;2052931;28;20415;-68
2023/10/16 04:38:54;;;;;;;4.40;0.90;;;;;;;11.49;100.00;101806.63;2049848;28;20529;-66
2023/10/16 04:43:51;;;;;;;2.50;1.20;;;;;;;11.46;100.00;101803.88;2044240;28;21011;-68
2023/10/16 04:45:26;;;;;;;1.50;1.10;;;;;;;11.44;100.00;101809.06;2046654;28;20446;-68
2023/10/16 04:46:23;;;;;;;1.43;1.00;;;;;;;11.44;100.00;101814.59;2044583;28;20447;-68
2023/10/16 04:47:26;;;;;;;3.17;1.03;;;;;;;11.45;100.00;101816.19;2046185;28;20451;-69
2023/10/16 04:49:14;;;;;;;2.33;1.20;;;;;;;11.45;100.00;101816.97;2034436;28;20617;-68
2023/10/16 04:49:59;;;;;;;2.47;1.20;;;;;;;11.50;100.00;101810.19;2037497;28;20434;-68
2023/10/16 04:51:15;;;;;;;1.10;0.90;;;;;;;11.52;100.00;101813.38;2047189;28;20551;-65
2023/10/16 04:52:36;;;;;;;3.23;1.20;;;;;;;11.52;100.00;101822.47;2046145;28;20869;-65
2023/10/16 04:53:48;;;;;;;2.10;0.93;;;;;;;11.49;100.00;101828.84;2044440;28;20461;-65
2023/10/16 04:55:02;;;;;;;1.30;0.90;;;;;;;11.48;100.00;101821.69;2038583;28;20424;-65
2023/10/16 04:56:15;;;;;;;1.23;1.00;;;;;;;11.48;100.00;101820.94;2037886;28;20455;-66
2023/10/16 05:02:33;;;;;;;1.97;0.97;;;;;;;11.50;100.00;101832.41;2042500;28;20430;-65
2023/10/16 05:07:17;;;;;;;1.10;0.80;;;;;;;11.51;100.00;101840.31;2050976;28;20444;-66
2023/10/16 05:10:12;;;;;;;1.50;0.80;;;;;;;11.45;100.00;101836.41;2026895;29;20441;-65
2023/10/16 05:17:19;;;;;;;2.17;0.97;;;;;;;11.59;100.00;101852.19;2043011;28;20441;-63
2023/10/16 05:21:18;;;;;;;1.97;1.03;;;;;;;11.69;100.00;101851.31;2049252;28;20451;-63
2023/10/16 06:14:20;;;;;;;1.93;1.10;;;;;;;12.23;96.88;101900.38;2042943;29;20434;-67
2023/10/16 06:15:21;;;;;;;2.87;1.13;;;;;;;12.27;96.58;101901.13;2042801;29;20450;-66
2023/10/16 06:16:22;;;;;;;3.00;1.47;;;;;;;12.26;96.21;101897.59;2033583;29;21033;-66